Marathon, Texas
Current Conditions -  °F | °C
As of 9:35 PM on Saturday 22 Nov 2014 (Local Time) from KE38 Reporting Station
Clear Clear  
Wind Chill: 53°   Ceiling: Unl
Heat Index: 53°   Visibility: 10mi
Dew Point: 35°   Wind: 13mph
Humidity: 49%   Direction: 260°W
Pressure: 29.99"   Gusts: NA
Location:  30.21°N, 103.25°W
Report Text: KE38 230335Z AUTO 26011KT 10SM CLR 12/02 A2999 RMK AO2 T01190016
Loading
Personal Weather Stations






























Interactive Weather Map New forecast layout! Learn more

10-Day Weather Forecast

Advertisements
Track Severe Weather on mobile